Time,TemperatureF,DewpointF,PressureIn,WindDirection,WindDirectionDegrees,WindSpeedMPH,WindSpeedGustMPH,Humidity,HourlyPrecipIn,Conditions,Clouds,dailyrainin,SoftwareType,DateUTC
2013-05-04 00:01:00,57.1,33.6,30.05,East,100,3.5,3.5,41,0.00,CLR,,0.00,WeatherDisplay:10.37,2013-05-04 04:01:00,
2013-05-04 00:02:00,57.3,33.8,30.05,East,100,3.5,3.5,41,0.00,CLR,,0.00,WeatherDisplay:10.37,2013-05-04 04:02:00,
2013-05-04 00:03:00,57.4,33.3,30.05,ESE,103,3.5,3.5,40,0.00,CLR,,0.00,WeatherDisplay:10.37,2013-05-04 04:03:00,
2013-05-04 00:08:00,57.7,33.5,30.05,ESE,103,0.0,0.0,40,0.00,CLR,,0.00,WeatherDisplay:10.37,2013-05-04 04:08:00,
2013-05-04 00:13:00,57.4,33.3,30.05,ESE,103,1.2,1.2,40,0.00,CLR,,0.00,WeatherDisplay:10.37,2013-05-04 04:13:00,
2013-05-04 00:18:00,57.3,33.2,30.05,ESE,103,1.2,1.2,40,0.00,CLR,,0.00,WeatherDisplay:10.37,2013-05-04 04:18:00,
2013-05-04 00:23:00,56.7,33.8,30.05,ESE,103,0.0,0.0,42,0.00,CLR,,0.00,WeatherDisplay:10.37,2013-05-04 04:23:00,
2013-05-04 00:28:00,56.0,33.2,30.05,ESE,103,0.0,0.0,42,0.00,CLR,,0.00,WeatherDisplay:10.37,2013-05-04 04:28:00,
2013-05-04 00:33:00,55.8,33.6,30.05,ESE,103,1.0,1.0,43,0.00,CLR,,0.00,WeatherDisplay:10.37,2013-05-04 04:33:00,
2013-05-04 00:38:00,55.9,33.7,30.05,ESE,103,2.3,2.3,43,0.00,CLR,,0.00,WeatherDisplay:10.37,2013-05-04 04:38:00,
2013-05-04 00:43:00,56.0,33.8,30.05,ESE,103,3.5,3.5,43,0.00,CLR,,0.00,WeatherDisplay:10.37,2013-05-04 04:43:00,
2013-05-04 00:48:00,55.8,33.6,30.05,East,90,5.0,5.0,43,0.00,CLR,,0.00,WeatherDisplay:10.37,2013-05-04 04:48:00,
2013-05-04 00:53:00,56.0,33.8,30.05,ENE,72,4.6,4.6,43,0.00,CLR,,0.00,WeatherDisplay:10.37,2013-05-04 04:53:00,
2013-05-04 00:58:00,56.1,33.9,30.05,ENE,74,4.0,4.0,43,0.00,CLR,,0.00,WeatherDisplay:10.37,2013-05-04 04:58:00,
2013-05-04 01:03:00,56.0,34.4,30.05,ENE,74,3.0,3.0,44,0.00,CLR,,0.00,WeatherDisplay:10.37,2013-05-04 05:03:00,
2013-05-04 01:08:00,55.7,34.1,30.05,ENE,74,2.3,2.3,44,0.00,CLR,,0.00,WeatherDisplay:10.37,2013-05-04 05:08:00,
2013-05-04 01:13:00,55.5,33.9,30.05,ENE,77,2.3,2.3,44,0.00,CLR,,0.00,WeatherDisplay:10.37,2013-05-04 05:13:00,
2013-05-04 01:18:00,55.3,34.3,30.05,ENE,72,4.0,4.0,45,0.00,CLR,,0.00,WeatherDisplay:10.37,2013-05-04 05:18:00,
2013-05-04 01:23:00,55.2,34.2,30.05,ENE,69,6.0,6.0,45,0.00,CLR,,0.00,WeatherDisplay:10.37,2013-05-04 05:23:00,
2013-05-04 01:28:00,55.3,34.3,30.04,ENE,66,4.0,4.0,45,0.00,CLR,,0.00,WeatherDisplay:10.37,2013-05-04 05:28:00,
2013-05-04 01:33:00,55.3,34.9,30.04,ENE,67,4.6,4.6,46,0.00,CLR,,0.00,WeatherDisplay:10.37,2013-05-04 05:33:00,
2013-05-04 01:38:00,55.2,34.8,30.04,ENE,73,4.0,4.0,46,0.00,CLR,,0.00,WeatherDisplay:10.37,2013-05-04 05:38:00,
2013-05-04 01:43:00,55.0,34.6,30.04,ENE,65,4.6,4.6,46,0.00,CLR,,0.00,WeatherDisplay:10.37,2013-05-04 05:43:00,
2013-05-04 01:48:00,54.8,34.9,30.04,ENE,66,7.0,7.0,47,0.00,CLR,,0.00,WeatherDisplay:10.37,2013-05-04 05:48:00,
2013-05-04 01:53:00,54.6,34.8,30.04,ENE,65,8.1,8.1,47,0.00,CLR,,0.00,WeatherDisplay:10.37,2013-05-04 05:53:00,
2013-05-04 01:58:00,54.4,35.1,30.04,ENE,77,7.0,7.0,48,0.00,CLR,,0.00,WeatherDisplay:10.37,2013-05-04 05:58:00,
2013-05-04 02:03:00,54.2,34.9,30.04,East,82,8.1,8.1,48,0.00,CLR,,0.00,WeatherDisplay:10.37,2013-05-04 06:03:00,
2013-05-04 02:08:00,54.1,34.8,30.04,ENE,70,8.0,8.0,48,0.00,CLR,,0.00,WeatherDisplay:10.37,2013-05-04 06:08:00,
2013-05-04 02:13:00,54.0,35.3,30.04,ENE,67,8.0,8.0,49,0.00,CLR,,0.00,WeatherDisplay:10.37,2013-05-04 06:13:00,
2013-05-04 02:18:00,54.0,35.3,30.04,East,84,6.9,6.9,49,0.00,CLR,,0.00,WeatherDisplay:10.37,2013-05-04 06:18:00,
2013-05-04 02:23:00,53.9,35.2,30.04,East,82,7.0,7.0,49,0.00,CLR,,0.00,WeatherDisplay:10.37,2013-05-04 06:23:00,
2013-05-04 02:28:00,53.8,35.1,30.04,East,86,6.0,6.0,49,0.00,CLR,,0.00,WeatherDisplay:10.37,2013-05-04 06:28:00,
2013-05-04 02:33:00,53.7,35.5,30.04,ENE,71,8.1,8.1,50,0.00,CLR,,0.00,WeatherDisplay:10.37,2013-05-04 06:33:00,
2013-05-04 02:38:00,53.6,35.4,30.04,NE,55,8.1,8.1,50,0.00,CLR,,0.00,WeatherDisplay:10.37,2013-05-04 06:38:00,
2013-05-04 02:43:00,53.5,35.8,30.04,ENE,68,6.9,6.9,51,0.00,CLR,,0.00,WeatherDisplay:10.37,2013-05-04 06:43:00,
2013-05-04 02:48:00,53.2,35.5,30.04,ENE,58,9.2,9.2,51,0.00,CLR,,0.00,WeatherDisplay:10.37,2013-05-04 06:48:00,
2013-05-04 02:53:00,53.1,35.9,30.04,ENE,71,7.0,7.0,52,0.00,CLR,,0.00,WeatherDisplay:10.37,2013-05-04 06:53:00,
2013-05-04 02:58:00,52.9,35.7,30.04,ENE,61,8.1,8.1,52,0.00,CLR,,0.00,WeatherDisplay:10.37,2013-05-04 06:58:00,
2013-05-04 03:03:00,52.8,36.1,30.04,East,81,6.0,6.0,53,0.00,CLR,,0.00,WeatherDisplay:10.37,2013-05-04 07:03:00,
2013-05-04 03:08:00,52.7,36.0,30.04,ENE,63,6.9,6.9,53,0.00,CLR,,0.00,WeatherDisplay:10.37,2013-05-04 07:08:00,
2013-05-04 03:13:00,52.7,36.0,30.04,ENE,59,8.1,8.1,53,0.00,CLR,,0.00,WeatherDisplay:10.37,2013-05-04 07:13:00,
2013-05-04 03:18:00,52.4,36.2,30.04,ENE,62,7.0,7.0,54,0.00,CLR,,0.00,WeatherDisplay:10.37,2013-05-04 07:18:00,
2013-05-04 03:23:00,52.3,36.1,30.04,ENE,63,6.0,6.0,54,0.00,CLR,,0.00,WeatherDisplay:10.37,2013-05-04 07:23:00,
2013-05-04 03:28:00,52.2,36.0,30.04,ENE,74,8.1,8.1,54,0.00,CLR,,0.00,WeatherDisplay:10.37,2013-05-04 07:28:00,
2013-05-04 03:33:00,52.0,36.3,30.04,East,85,5.0,5.0,55,0.00,CLR,,0.00,WeatherDisplay:10.37,2013-05-04 07:33:00,
2013-05-04 03:38:00,51.8,36.1,30.04,East,84,8.0,8.0,55,0.00,CLR,,0.00,WeatherDisplay:10.37,2013-05-04 07:38:00,
2013-05-04 03:43:00,51.8,36.1,30.04,NE,56,5.8,5.8,55,0.00,CLR,,0.00,WeatherDisplay:10.37,2013-05-04 07:43:00,
2013-05-04 03:48:00,51.7,36.5,30.04,NE,54,7.0,7.0,56,0.00,CLR,,0.00,WeatherDisplay:10.37,2013-05-04 07:48:00,
2013-05-04 03:53:00,51.6,36.4,30.04,ENE,65,6.0,6.0,56,0.00,CLR,,0.00,WeatherDisplay:10.37,2013-05-04 07:53:00,
2013-05-04 03:58:00,51.6,36.4,30.04,East,79,5.0,5.0,56,0.00,CLR,,0.00,WeatherDisplay:10.37,2013-05-04 07:58:00,
2013-05-04 04:03:00,51.5,36.8,30.03,ENE,70,7.0,7.0,57,0.00,CLR,,0.00,WeatherDisplay:10.37,2013-05-04 08:03:00,
2013-05-04 04:08:00,51.4,36.7,30.04,ENE,63,5.0,5.0,57,0.00,CLR,,0.00,WeatherDisplay:10.37,2013-05-04 08:08:00,
2013-05-04 04:13:00,51.3,36.6,30.04,ENE,69,6.0,6.0,57,0.00,CLR,,0.00,WeatherDisplay:10.37,2013-05-04 08:13:00,
2013-05-04 04:18:00,51.2,36.9,30.04,East,82,4.6,4.6,58,0.00,CLR,,0.00,WeatherDisplay:10.37,2013-05-04 08:18:00,
2013-05-04 04:23:00,51.1,36.8,30.04,East,84,5.8,5.8,58,0.00,CLR,,0.00,WeatherDisplay:10.37,2013-05-04 08:23:00,
2013-05-04 04:28:00,51.1,36.8,30.04,East,87,8.1,8.1,58,0.00,CLR,,0.00,WeatherDisplay:10.37,2013-05-04 08:28:00,
2013-05-04 04:33:00,51.1,36.8,30.04,ENE,75,4.6,4.6,58,0.00,CLR,,0.00,WeatherDisplay:10.37,2013-05-04 08:33:00,
2013-05-04 04:38:00,51.0,37.2,30.04,ENE,70,6.0,6.0,59,0.00,CLR,,0.00,WeatherDisplay:10.37,2013-05-04 08:38:00,
2013-05-04 04:43:00,50.8,37.0,30.03,ENE,76,5.0,5.0,59,0.00,CLR,,0.00,WeatherDisplay:10.37,2013-05-04 08:43:00,
2013-05-04 04:48:00,50.6,36.8,30.03,ENE,73,6.0,6.0,59,0.00,CLR,,0.00,WeatherDisplay:10.37,2013-05-04 08:48:00,
2013-05-04 04:53:00,50.4,36.6,30.04,East,80,3.5,3.5,59,0.00,CLR,,0.00,WeatherDisplay:10.37,2013-05-04 08:53:00,
2013-05-04 04:58:00,50.1,36.7,30.04,ENE,68,4.0,4.0,60,0.00,CLR,,0.00,WeatherDisplay:10.37,2013-05-04 08:58:00,
2013-05-04 05:03:00,49.9,36.6,30.04,ENE,71,5.8,5.8,60,0.00,CLR,,0.00,WeatherDisplay:10.37,2013-05-04 09:03:00,
2013-05-04 05:08:00,49.6,36.7,30.04,East,80,6.0,6.0,61,0.00,CLR,,0.00,WeatherDisplay:10.37,2013-05-04 09:08:00,
2013-05-04 05:13:00,49.4,36.5,30.04,East,88,5.0,5.0,61,0.00,CLR,,0.00,WeatherDisplay:10.37,2013-05-04 09:13:00,
2013-05-04 05:18:00,48.8,36.8,30.04,ENE,74,4.6,4.6,63,0.00,CLR,,0.00,WeatherDisplay:10.37,2013-05-04 09:18:00,
2013-05-04 05:23:00,48.2,36.6,30.04,ENE,77,4.6,4.6,64,0.00,CLR,,0.00,WeatherDisplay:10.37,2013-05-04 09:23:00,
2013-05-04 05:28:00,47.7,36.5,30.04,East,86,5.0,5.0,65,0.00,CLR,,0.00,WeatherDisplay:10.37,2013-05-04 09:28:00,
2013-05-04 05:33:00,47.4,36.6,30.04,East,87,6.0,6.0,66,0.00,CLR,,0.00,WeatherDisplay:10.37,2013-05-04 09:33:00,
2013-05-04 05:38:00,47.3,36.9,30.04,East,84,5.8,5.8,67,0.00,CLR,,0.00,WeatherDisplay:10.37,2013-05-04 09:38:00,
2013-05-04 05:43:00,47.3,36.9,30.04,East,96,5.0,5.0,67,0.00,CLR,,0.00,WeatherDisplay:10.37,2013-05-04 09:43:00,
2013-05-04 05:48:00,47.2,36.4,30.04,East,81,3.5,3.5,66,0.00,CLR,,0.00,WeatherDisplay:10.37,2013-05-04 09:48:00,
2013-05-04 05:53:00,47.1,36.7,30.04,East,86,3.5,3.5,67,0.00,CLR,,0.00,WeatherDisplay:10.37,2013-05-04 09:53:00,
2013-05-04 05:58:00,47.2,36.4,30.04,East,86,3.5,3.5,66,0.00,CLR,,0.00,WeatherDisplay:10.37,2013-05-04 09:58:00,
2013-05-04 06:03:00,47.3,36.5,30.04,East,82,3.5,3.5,66,0.00,CLR,,0.00,WeatherDisplay:10.37,2013-05-04 10:03:00,
2013-05-04 06:08:00,47.2,36.8,30.04,East,82,2.3,2.3,67,0.00,CLR,,0.00,WeatherDisplay:10.37,2013-05-04 10:08:00,
2013-05-04 06:13:00,47.1,36.7,30.05,East,88,5.0,5.0,67,0.00,CLR,,0.00,WeatherDisplay:10.37,2013-05-04 10:13:00,
2013-05-04 06:18:00,47.0,36.6,30.05,East,87,3.5,3.5,67,0.00,CLR,,0.00,WeatherDisplay:10.37,2013-05-04 10:18:00,
2013-05-04 06:23:00,47.0,36.6,30.05,East,88,3.5,3.5,67,0.00,CLR,,0.00,WeatherDisplay:10.37,2013-05-04 10:23:00,
2013-05-04 06:28:00,47.4,36.6,30.05,East,85,5.0,5.0,66,0.00,CLR,,0.00,WeatherDisplay:10.37,2013-05-04 10:28:00,
2013-05-04 06:33:00,47.6,36.4,30.05,East,86,3.5,3.5,65,0.00,CLR,,0.00,WeatherDisplay:10.37,2013-05-04 10:33:00,
2013-05-04 06:38:00,47.8,36.6,30.05,East,86,3.5,3.5,65,0.00,CLR,,0.00,WeatherDisplay:10.37,2013-05-04 10:38:00,
2013-05-04 06:43:00,47.9,37.1,30.05,East,88,2.3,0.0,66,0.00,CLR,,0.00,WeatherDisplay:10.37,2013-05-04 10:43:00,
2013-05-04 06:48:00,48.1,36.9,30.05,East,88,0.0,0.0,65,0.00,CLR,,0.00,WeatherDisplay:10.37,2013-05-04 10:48:00,
2013-05-04 06:53:00,48.3,37.5,30.05,East,88,0.0,0.0,66,0.00,CLR,,0.00,WeatherDisplay:10.37,2013-05-04 10:53:00,
2013-05-04 06:58:00,48.5,37.3,30.05,East,88,0.0,0.0,65,0.00,CLR,,0.00,WeatherDisplay:10.37,2013-05-04 10:58:00,
2013-05-04 07:03:00,49.0,37.3,30.05,East,88,2.0,2.0,64,0.00,CLR,,0.00,WeatherDisplay:10.37,2013-05-04 11:03:00,
2013-05-04 07:08:00,49.7,37.2,30.05,East,88,3.5,3.5,62,0.00,CLR,,0.00,WeatherDisplay:10.37,2013-05-04 11:08:00,
2013-05-04 07:13:00,50.3,36.9,30.05,East,88,4.6,4.6,60,0.00,CLR,,0.00,WeatherDisplay:10.37,2013-05-04 11:13:00,
2013-05-04 07:18:00,50.9,36.6,30.06,East,86,4.6,4.6,58,0.00,CLR,,0.00,WeatherDisplay:10.37,2013-05-04 11:18:00,
2013-05-04 07:23:00,51.2,36.9,30.06,East,90,6.0,6.0,58,0.00,CLR,,0.00,WeatherDisplay:10.37,2013-05-04 11:23:00,
2013-05-04 07:28:00,51.6,37.3,30.06,ENE,76,5.0,5.0,58,0.00,CLR,,0.00,WeatherDisplay:10.37,2013-05-04 11:28:00,
2013-05-04 07:33:00,52.1,37.3,30.06,East,93,5.8,5.8,57,0.00,CLR,,0.00,WeatherDisplay:10.37,2013-05-04 11:33:00,
2013-05-04 07:38:00,52.5,37.2,30.06,East,85,3.5,3.5,56,0.00,CLR,,0.00,WeatherDisplay:10.37,2013-05-04 11:38:00,
2013-05-04 07:43:00,53.0,36.8,30.06,East,82,6.9,6.9,54,0.00,CLR,,0.00,WeatherDisplay:10.37,2013-05-04 11:43:00,
2013-05-04 07:48:00,53.4,37.2,30.06,East,86,7.0,7.0,54,0.00,CLR,,0.00,WeatherDisplay:10.37,2013-05-04 11:48:00,
2013-05-04 07:53:00,53.6,36.9,30.06,East,88,9.2,9.2,53,0.00,CLR,,0.00,WeatherDisplay:10.37,2013-05-04 11:53:00,
2013-05-04 07:58:00,53.9,36.7,30.06,ENE,70,9.2,9.2,52,0.00,CLR,,0.00,WeatherDisplay:10.37,2013-05-04 11:58:00,
2013-05-04 08:03:00,54.3,37.0,30.06,ENE,76,8.1,8.1,52,0.00,CLR,,0.00,WeatherDisplay:10.37,2013-05-04 12:03:00,
2013-05-04 08:08:00,54.7,37.9,30.06,East,81,8.0,8.0,53,0.00,CLR,,0.00,WeatherDisplay:10.37,2013-05-04 12:08:00,
2013-05-04 08:13:00,54.9,38.6,30.06,East,96,7.0,7.0,54,0.00,CLR,,0.00,WeatherDisplay:10.37,2013-05-04 12:13:00,
2013-05-04 08:18:00,55.1,38.7,30.06,ENE,67,5.0,5.0,54,0.00,CLR,,0.00,WeatherDisplay:10.37,2013-05-04 12:18:00,
2013-05-04 08:23:00,55.4,39.0,30.06,East,81,4.6,4.6,54,0.00,CLR,,0.00,WeatherDisplay:10.37,2013-05-04 12:23:00,
2013-05-04 08:29:00,56.1,40.1,30.06,East,82,3.5,3.5,55,0.00,CLR,,0.00,WeatherDisplay:10.37,2013-05-04 12:29:00,
2013-05-04 08:34:00,56.8,38.9,30.06,East,84,6.9,6.9,51,0.00,CLR,,0.00,WeatherDisplay:10.37,2013-05-04 12:34:00,
2013-05-04 08:39:00,57.3,39.3,30.06,East,91,5.8,5.8,51,0.00,CLR,,0.00,WeatherDisplay:10.37,2013-05-04 12:39:00,
2013-05-04 08:44:00,57.6,38.6,30.07,ESE,109,8.1,8.1,49,0.00,CLR,,0.00,WeatherDisplay:10.37,2013-05-04 12:44:00,
2013-05-04 08:49:00,57.6,38.0,30.06,East,94,6.9,6.9,48,0.00,CLR,,0.00,WeatherDisplay:10.37,2013-05-04 12:49:00,
2013-05-04 08:54:00,57.8,38.2,30.06,East,95,7.0,7.0,48,0.00,CLR,,0.00,WeatherDisplay:10.37,2013-05-04 12:54:00,
2013-05-04 08:59:00,58.2,39.1,30.06,East,98,4.6,4.6,49,0.00,CLR,,0.00,WeatherDisplay:10.37,2013-05-04 12:59:00,
2013-05-04 09:04:00,58.6,39.0,30.06,ESE,110,5.0,5.0,48,0.00,CLR,,0.00,WeatherDisplay:10.37,2013-05-04 13:04:00,
2013-05-04 09:07:00,58.7,38.0,30.06,ESE,114,3.5,3.5,46,0.00,CLR,,0.00,WeatherDisplay:10.37,2013-05-04 13:07:00,
2013-05-04 09:12:00,59.0,38.2,30.06,East,89,2.3,2.3,46,0.00,CLR,,0.00,WeatherDisplay:10.37,2013-05-04 13:12:00,
2013-05-04 09:17:00,59.6,39.3,30.06,ESE,112,7.0,7.0,47,0.00,CLR,,0.00,WeatherDisplay:10.37,2013-05-04 13:17:00,
2013-05-04 09:22:00,59.8,37.2,30.06,ESE,115,6.9,6.9,43,0.00,CLR,,0.00,WeatherDisplay:10.37,2013-05-04 13:22:00,
2013-05-04 09:27:00,59.8,37.8,30.06,ESE,105,4.0,4.0,44,0.00,CLR,,0.00,WeatherDisplay:10.37,2013-05-04 13:27:00,
2013-05-04 09:32:00,60.5,39.6,30.06,ESE,106,3.5,3.5,46,0.00,CLR,,0.00,WeatherDisplay:10.37,2013-05-04 13:32:00,
2013-05-04 09:37:00,60.9,37.0,30.06,ESE,113,1.2,0.0,41,0.00,CLR,,0.00,WeatherDisplay:10.37,2013-05-04 13:37:00,
2013-05-04 09:42:00,61.5,39.4,30.06,East,99,3.5,3.5,44,0.00,CLR,,0.00,WeatherDisplay:10.37,2013-05-04 13:42:00,
2013-05-04 09:47:00,61.7,36.5,30.06,ESE,117,3.5,3.5,39,0.00,CLR,,0.00,WeatherDisplay:10.37,2013-05-04 13:47:00,
2013-05-04 09:52:00,61.8,38.4,30.06,East,101,0.0,0.0,42,0.00,CLR,,0.00,WeatherDisplay:10.37,2013-05-04 13:52:00,
2013-05-04 09:57:00,61.7,36.5,30.06,East,101,2.3,2.3,39,0.00,CLR,,0.00,WeatherDisplay:10.37,2013-05-04 13:57:00,
2013-05-04 10:02:00,62.5,37.2,30.05,East,101,2.3,2.3,39,0.00,CLR,,0.00,WeatherDisplay:10.37,2013-05-04 14:02:00,
2013-05-04 10:07:00,62.6,37.3,30.05,ESE,107,2.3,2.3,39,0.00,CLR,,0.00,WeatherDisplay:10.37,2013-05-04 14:07:00,
2013-05-04 10:12:00,62.8,38.1,30.05,ESE,107,1.2,1.2,40,0.00,CLR,,0.00,WeatherDisplay:10.37,2013-05-04 14:12:00,
2013-05-04 10:17:00,63.2,37.8,30.05,North,5,3.5,3.5,39,0.00,CLR,,0.00,WeatherDisplay:10.37,2013-05-04 14:17:00,
2013-05-04 10:22:00,62.8,37.5,30.05,North,5,0.0,0.0,39,0.00,CLR,,0.00,WeatherDisplay:10.37,2013-05-04 14:22:00,
2013-05-04 10:27:00,63.6,36.1,30.05,East,101,6.0,6.0,36,0.00,CLR,,0.00,WeatherDisplay:10.37,2013-05-04 14:27:00,
2013-05-04 10:32:00,64.2,36.7,30.05,ESE,116,8.1,8.1,36,0.00,CLR,,0.00,WeatherDisplay:10.37,2013-05-04 14:32:00,
2013-05-04 10:37:00,64.1,36.6,30.05,East,91,7.0,7.0,36,0.00,CLR,,0.00,WeatherDisplay:10.37,2013-05-04 14:37:00,
2013-05-04 10:42:00,64.6,35.6,30.05,ENE,77,9.2,9.2,34,0.00,CLR,,0.00,WeatherDisplay:10.37,2013-05-04 14:42:00,
2013-05-04 10:47:00,64.1,36.6,30.05,East,90,3.5,3.5,36,0.00,CLR,,0.00,WeatherDisplay:10.37,2013-05-04 14:47:00,
2013-05-04 10:52:00,64.5,38.3,30.05,East,92,0.0,0.0,38,0.00,CLR,,0.00,WeatherDisplay:10.37,2013-05-04 14:52:00,
2013-05-04 10:57:00,65.2,37.6,30.05,ESE,115,8.0,8.0,36,0.00,CLR,,0.00,WeatherDisplay:10.37,2013-05-04 14:57:00,
2013-05-04 11:02:00,65.4,39.1,30.04,East,99,8.1,8.1,38,0.00,CLR,,0.00,WeatherDisplay:10.37,2013-05-04 15:02:00,
2013-05-04 11:07:00,65.6,37.9,30.04,ENE,76,8.1,8.1,36,0.00,CLR,,0.00,WeatherDisplay:10.37,2013-05-04 15:07:00,
2013-05-04 11:12:00,65.5,39.2,30.04,East,82,3.5,3.5,38,0.00,CLR,,0.00,WeatherDisplay:10.37,2013-05-04 15:12:00,
2013-05-04 11:17:00,65.8,38.1,30.03,SE,132,5.0,5.0,36,0.00,CLR,,0.00,WeatherDisplay:10.37,2013-05-04 15:17:00,
2013-05-04 11:22:00,66.3,38.5,30.03,SE,143,11.5,11.5,36,0.00,CLR,,0.00,WeatherDisplay:10.37,2013-05-04 15:22:00,
2013-05-04 11:27:00,66.1,37.6,30.04,ESE,115,3.5,3.5,35,0.00,CLR,,0.00,WeatherDisplay:10.37,2013-05-04 15:27:00,
2013-05-04 11:32:00,66.4,41.3,30.03,ENE,76,9.2,9.2,40,0.00,CLR,,0.00,WeatherDisplay:10.37,2013-05-04 15:32:00,
2013-05-04 11:37:00,66.5,38.7,30.03,ESE,122,6.9,6.9,36,0.00,CLR,,0.00,WeatherDisplay:10.37,2013-05-04 15:37:00,
2013-05-04 11:42:00,67.3,42.8,30.03,ENE,65,6.9,6.9,41,0.00,CLR,,0.00,WeatherDisplay:10.37,2013-05-04 15:42:00,
2013-05-04 11:47:00,67.9,39.9,30.03,ENE,59,10.4,10.4,36,0.00,CLR,,0.00,WeatherDisplay:10.37,2013-05-04 15:47:00,
2013-05-04 11:52:00,67.4,39.5,30.03,SE,140,5.8,5.8,36,0.00,CLR,,0.00,WeatherDisplay:10.37,2013-05-04 15:52:00,
2013-05-04 11:57:00,68.0,44.0,30.02,ENE,67,9.2,9.2,42,0.00,CLR,,0.00,WeatherDisplay:10.37,2013-05-04 15:57:00,
2013-05-04 12:02:00,68.3,41.7,30.02,East,92,9.0,9.0,38,0.00,CLR,,0.00,WeatherDisplay:10.37,2013-05-04 16:02:00,
2013-05-04 12:07:00,68.1,42.9,30.02,East,79,8.1,8.1,40,0.00,CLR,,0.00,WeatherDisplay:10.37,2013-05-04 16:07:00,
2013-05-04 12:12:00,68.5,42.6,30.02,ENE,62,13.0,13.0,39,0.00,CLR,,0.00,WeatherDisplay:10.37,2013-05-04 16:12:00,
2013-05-04 12:17:00,68.8,40.0,30.02,ESE,117,10.4,10.4,35,0.00,CLR,,0.00,WeatherDisplay:10.37,2013-05-04 16:17:00,
2013-05-04 12:22:00,68.7,39.9,30.01,ESE,123,5.0,5.0,35,0.00,CLR,,0.00,WeatherDisplay:10.37,2013-05-04 16:22:00,
2013-05-04 12:27:00,69.0,39.4,30.01,ESE,114,13.0,13.0,34,0.00,CLR,,0.00,WeatherDisplay:10.37,2013-05-04 16:27:00,
2013-05-04 12:32:00,69.3,43.3,30.01,ENE,61,9.2,9.2,39,0.00,CLR,,0.00,WeatherDisplay:10.37,2013-05-04 16:32:00,
2013-05-04 12:37:00,69.9,41.0,30.01,ESE,112,10.4,10.4,35,0.00,CLR,,0.00,WeatherDisplay:10.37,2013-05-04 16:37:00,
2013-05-04 12:42:00,69.6,39.2,30.01,SSE,148,8.1,8.1,33,0.00,CLR,,0.00,WeatherDisplay:10.37,2013-05-04 16:42:00,
2013-05-04 12:47:00,69.2,41.8,30.00,NE,49,4.6,4.6,37,0.00,CLR,,0.00,WeatherDisplay:10.37,2013-05-04 16:47:00,
2013-05-04 12:52:00,69.2,41.1,30.00,NE,39,10.4,10.4,36,0.00,CLR,,0.00,WeatherDisplay:10.37,2013-05-04 16:52:00,
2013-05-04 12:57:00,69.1,43.1,30.00,ENE,62,6.9,6.9,39,0.00,CLR,,0.00,WeatherDisplay:10.37,2013-05-04 16:57:00,
2013-05-04 13:02:00,69.9,42.4,30.00,East,89,10.4,10.4,37,0.00,CLR,,0.00,WeatherDisplay:10.37,2013-05-04 17:02:00,
2013-05-04 13:07:00,70.5,41.5,30.00,ENE,65,13.8,13.8,35,0.00,CLR,,0.00,WeatherDisplay:10.37,2013-05-04 17:07:00,
2013-05-04 13:12:00,70.3,42.1,30.00,East,90,8.0,8.0,36,0.00,CLR,,0.00,WeatherDisplay:10.37,2013-05-04 17:12:00,
2013-05-04 13:17:00,70.9,41.9,29.99,ENE,63,8.1,8.1,35,0.00,CLR,,0.00,WeatherDisplay:10.37,2013-05-04 17:17:00,
2013-05-04 13:22:00,71.0,42.7,30.00,NE,38,6.9,6.9,36,0.00,CLR,,0.00,WeatherDisplay:10.37,2013-05-04 17:22:00,
2013-05-04 13:27:00,71.4,40.0,29.99,East,87,9.2,9.2,32,0.00,CLR,,0.00,WeatherDisplay:10.37,2013-05-04 17:27:00,
2013-05-04 13:32:00,71.4,40.8,29.99,East,90,11.0,11.0,33,0.00,CLR,,0.00,WeatherDisplay:10.37,2013-05-04 17:32:00,
2013-05-04 13:37:00,71.3,40.7,29.99,ENE,76,4.6,4.6,33,0.00,CLR,,0.00,WeatherDisplay:10.37,2013-05-04 17:37:00,
2013-05-04 13:42:00,71.2,42.1,29.99,East,79,3.5,3.5,35,0.00,CLR,,0.00,WeatherDisplay:10.37,2013-05-04 17:42:00,
2013-05-04 13:47:00,70.8,45.3,29.98,NNE,28,3.5,3.5,40,0.00,CLR,,0.00,WeatherDisplay:10.37,2013-05-04 17:47:00,
2013-05-04 13:52:00,71.6,41.7,29.98,SSE,156,4.6,4.6,34,0.00,CLR,,0.00,WeatherDisplay:10.37,2013-05-04 17:52:00,
2013-05-04 13:57:00,71.7,42.6,29.98,SE,125,7.0,7.0,35,0.00,CLR,,0.00,WeatherDisplay:10.37,2013-05-04 17:57:00,
2013-05-04 14:02:00,72.2,43.0,29.98,North,5,6.0,6.0,35,0.00,CLR,,0.00,WeatherDisplay:10.37,2013-05-04 18:02:00,
2013-05-04 14:07:00,72.0,42.8,29.98,East,92,10.4,10.4,35,0.00,CLR,,0.00,WeatherDisplay:10.37,2013-05-04 18:07:00,
2013-05-04 14:12:00,72.3,40.8,29.97,ESE,118,11.5,11.5,32,0.00,CLR,,0.00,WeatherDisplay:10.37,2013-05-04 18:12:00,
2013-05-04 14:17:00,71.7,41.0,29.97,ENE,58,2.3,2.3,33,0.00,CLR,,0.00,WeatherDisplay:10.37,2013-05-04 18:17:00,
2013-05-04 14:22:00,72.6,43.4,29.97,East,98,9.2,9.2,35,0.00,CLR,,0.00,WeatherDisplay:10.37,2013-05-04 18:22:00,
2013-05-04 14:27:00,73.6,41.9,29.97,ESE,123,5.8,5.8,32,0.00,CLR,,0.00,WeatherDisplay:10.37,2013-05-04 18:27:00,
2013-05-04 14:32:00,73.4,41.7,29.97,SE,134,10.4,10.4,32,0.00,CLR,,0.00,WeatherDisplay:10.37,2013-05-04 18:32:00,
2013-05-04 14:37:00,73.5,42.6,29.97,ESE,109,4.6,4.6,33,0.00,CLR,,0.00,WeatherDisplay:10.37,2013-05-04 18:37:00,
2013-05-04 14:42:00,73.4,44.1,29.96,SE,135,9.2,9.2,35,0.00,CLR,,0.00,WeatherDisplay:10.37,2013-05-04 18:42:00,
2013-05-04 14:47:00,73.5,42.6,29.96,SSE,163,10.4,10.4,33,0.00,CLR,,0.00,WeatherDisplay:10.37,2013-05-04 18:47:00,
2013-05-04 14:52:00,73.0,41.4,29.95,South,182,8.1,8.1,32,0.00,CLR,,0.00,WeatherDisplay:10.37,2013-05-04 18:52:00,
2013-05-04 14:57:00,73.2,45.4,29.95,NE,50,3.5,3.5,37,0.00,CLR,,0.00,WeatherDisplay:10.37,2013-05-04 18:57:00,
2013-05-04 15:02:00,73.8,44.4,29.95,ESE,121,13.0,13.0,35,0.00,CLR,,0.00,WeatherDisplay:10.37,2013-05-04 19:02:00,
2013-05-04 15:07:00,74.0,43.8,29.95,SE,128,10.0,10.0,34,0.00,CLR,,0.00,WeatherDisplay:10.37,2013-05-04 19:07:00,
2013-05-04 15:12:00,73.4,42.5,29.95,SE,125,3.5,3.5,33,0.00,CLR,,0.00,WeatherDisplay:10.37,2013-05-04 19:12:00,
2013-05-04 15:17:00,73.9,43.8,29.95,ESE,114,12.0,12.0,34,0.00,CLR,,0.00,WeatherDisplay:10.37,2013-05-04 19:17:00,
2013-05-04 15:22:00,73.9,42.2,29.95,ESE,115,9.0,9.0,32,0.00,CLR,,0.00,WeatherDisplay:10.37,2013-05-04 19:22:00,
2013-05-04 15:27:00,73.9,42.2,29.94,East,86,8.1,8.1,32,0.00,CLR,,0.00,WeatherDisplay:10.37,2013-05-04 19:27:00,
2013-05-04 15:32:00,73.6,45.7,29.94,ESE,103,3.5,3.5,37,0.00,CLR,,0.00,WeatherDisplay:10.37,2013-05-04 19:32:00,
2013-05-04 15:37:00,74.7,44.5,29.94,East,90,9.2,9.2,34,0.00,CLR,,0.00,WeatherDisplay:10.37,2013-05-04 19:37:00,
2013-05-04 15:42:00,74.8,44.5,29.94,East,86,9.2,9.2,34,0.00,CLR,,0.00,WeatherDisplay:10.37,2013-05-04 19:42:00,
2013-05-04 15:47:00,74.1,45.4,29.94,East,84,8.0,8.0,36,0.00,CLR,,0.00,WeatherDisplay:10.37,2013-05-04 19:47:00,
2013-05-04 15:52:00,74.0,42.3,29.93,SSE,150,11.5,11.5,32,0.00,CLR,,0.00,WeatherDisplay:10.37,2013-05-04 19:52:00,
2013-05-04 15:57:00,73.6,42.7,29.93,East,96,5.8,5.8,33,0.00,CLR,,0.00,WeatherDisplay:10.37,2013-05-04 19:57:00,
2013-05-04 16:02:00,74.1,42.3,29.93,ESE,119,2.3,2.3,32,0.00,CLR,,0.00,WeatherDisplay:10.37,2013-05-04 20:02:00,
2013-05-04 16:07:00,74.8,43.0,29.93,ESE,111,15.0,15.0,32,0.00,CLR,,0.00,WeatherDisplay:10.37,2013-05-04 20:07:00,
2013-05-04 16:12:00,74.4,43.4,29.93,SE,126,0.0,0.0,33,0.00,CLR,,0.00,WeatherDisplay:10.37,2013-05-04 20:12:00,
2013-05-04 16:17:00,74.0,44.6,29.93,East,86,8.1,8.1,35,0.00,CLR,,0.00,WeatherDisplay:10.37,2013-05-04 20:17:00,
2013-05-04 16:22:00,74.7,42.0,29.92,SE,129,8.1,8.1,31,0.00,CLR,,0.00,WeatherDisplay:10.37,2013-05-04 20:22:00,
2013-05-04 16:27:00,75.0,43.9,29.92,East,86,9.2,9.2,33,0.00,CLR,,0.00,WeatherDisplay:10.37,2013-05-04 20:27:00,
2013-05-04 16:32:00,74.8,43.0,29.92,ESE,119,6.9,6.9,32,0.00,CLR,,0.00,WeatherDisplay:10.37,2013-05-04 20:32:00,
2013-05-04 16:37:00,74.3,42.5,29.92,ENE,67,3.5,3.5,32,0.00,CLR,,0.00,WeatherDisplay:10.37,2013-05-04 20:37:00,
2013-05-04 16:42:00,74.5,45.8,29.92,ESE,104,9.0,9.0,36,0.00,CLR,,0.00,WeatherDisplay:10.37,2013-05-04 20:42:00,
2013-05-04 16:47:00,74.3,45.6,29.92,East,90,9.2,9.2,36,0.00,CLR,,0.00,WeatherDisplay:10.37,2013-05-04 20:47:00,
2013-05-04 16:52:00,74.8,43.8,29.92,ESE,103,11.5,11.5,33,0.00,CLR,,0.00,WeatherDisplay:10.37,2013-05-04 20:52:00,
2013-05-04 16:57:00,74.4,42.6,29.92,ESE,114,4.0,4.0,32,0.00,CLR,,0.00,WeatherDisplay:10.37,2013-05-04 20:57:00,
2013-05-04 17:02:00,74.8,42.1,29.92,SE,126,6.9,6.9,31,0.00,CLR,,0.00,WeatherDisplay:10.37,2013-05-04 21:02:00,
2013-05-04 17:07:00,74.6,42.8,29.91,SE,146,3.5,3.5,32,0.00,CLR,,0.00,WeatherDisplay:10.37,2013-05-04 21:07:00,
2013-05-04 17:12:00,74.4,43.4,29.91,SE,130,1.2,1.2,33,0.00,CLR,,0.00,WeatherDisplay:10.37,2013-05-04 21:12:00,
2013-05-04 17:17:00,74.9,43.8,29.91,ESE,109,8.1,8.1,33,0.00,CLR,,0.00,WeatherDisplay:10.37,2013-05-04 21:17:00,
2013-05-04 17:22:00,74.6,43.6,29.91,ENE,74,6.9,6.9,33,0.00,CLR,,0.00,WeatherDisplay:10.37,2013-05-04 21:22:00,
2013-05-04 17:27:00,74.0,46.1,29.91,East,101,6.0,6.0,37,0.00,CLR,,0.00,WeatherDisplay:10.37,2013-05-04 21:27:00,
2013-05-04 17:32:00,74.2,44.0,29.91,East,82,3.0,3.0,34,0.00,CLR,,0.00,WeatherDisplay:10.37,2013-05-04 21:32:00,
2013-05-04 17:37:00,74.2,44.0,29.91,East,96,6.9,6.9,34,0.00,CLR,,0.00,WeatherDisplay:10.37,2013-05-04 21:37:00,
2013-05-04 17:42:00,74.8,43.0,29.91,SE,126,8.0,8.0,32,0.00,CLR,,0.00,WeatherDisplay:10.37,2013-05-04 21:42:00,
2013-05-04 17:47:00,74.3,43.3,29.91,ESE,107,4.6,4.6,33,0.00,CLR,,0.00,WeatherDisplay:10.37,2013-05-04 21:47:00,
2013-05-04 17:52:00,74.3,43.3,29.91,ESE,107,0.0,0.0,33,0.00,CLR,,0.00,WeatherDisplay:10.37,2013-05-04 21:52:00,
2013-05-04 17:57:00,74.4,44.2,29.91,East,96,8.1,8.1,34,0.00,CLR,,0.00,WeatherDisplay:10.37,2013-05-04 21:57:00,
2013-05-04 18:02:00,74.4,44.2,29.91,ESE,121,6.0,6.0,34,0.00,CLR,,0.00,WeatherDisplay:10.37,2013-05-04 22:02:00,
2013-05-04 18:07:00,74.5,44.3,29.91,SE,126,8.1,8.1,34,0.00,CLR,,0.00,WeatherDisplay:10.37,2013-05-04 22:07:00,
2013-05-04 18:12:00,74.2,43.2,29.90,ESE,121,5.0,5.0,33,0.00,CLR,,0.00,WeatherDisplay:10.37,2013-05-04 22:12:00,
2013-05-04 18:17:00,74.4,43.4,29.90,ESE,107,7.0,7.0,33,0.00,CLR,,0.00,WeatherDisplay:10.37,2013-05-04 22:17:00,
2013-05-04 18:22:00,74.0,42.3,29.91,ESE,117,11.5,11.5,32,0.00,CLR,,0.00,WeatherDisplay:10.37,2013-05-04 22:22:00,
2013-05-04 18:27:00,74.1,42.3,29.90,ENE,76,8.1,8.1,32,0.00,CLR,,0.00,WeatherDisplay:10.37,2013-05-04 22:27:00,
2013-05-04 18:32:00,73.9,42.2,29.90,ESE,116,8.1,8.1,32,0.00,CLR,,0.00,WeatherDisplay:10.37,2013-05-04 22:32:00,
2013-05-04 18:37:00,73.5,41.8,29.90,ESE,112,7.0,7.0,32,0.00,CLR,,0.00,WeatherDisplay:10.37,2013-05-04 22:37:00,
2013-05-04 18:42:00,73.4,41.7,29.90,East,101,5.8,5.8,32,0.00,CLR,,0.00,WeatherDisplay:10.37,2013-05-04 22:42:00,
2013-05-04 18:47:00,73.3,40.8,29.90,ESE,103,8.1,8.1,31,0.00,CLR,,0.00,WeatherDisplay:10.37,2013-05-04 22:47:00,
2013-05-04 18:52:00,73.3,40.8,29.90,East,98,9.2,9.2,31,0.00,CLR,,0.00,WeatherDisplay:10.37,2013-05-04 22:52:00,
2013-05-04 18:57:00,73.0,41.4,29.90,ESE,106,9.0,9.0,32,0.00,CLR,,0.00,WeatherDisplay:10.37,2013-05-04 22:57:00,
2013-05-04 19:02:00,72.7,41.1,29.90,ESE,117,8.1,8.1,32,0.00,CLR,,0.00,WeatherDisplay:10.37,2013-05-04 23:02:00,
2013-05-04 19:07:00,72.1,41.4,29.91,East,92,5.8,5.8,33,0.00,CLR,,0.00,WeatherDisplay:10.37,2013-05-04 23:07:00,
2013-05-04 19:12:00,72.3,40.0,29.91,East,101,5.8,5.8,31,0.00,CLR,,0.00,WeatherDisplay:10.37,2013-05-04 23:12:00,
2013-05-04 19:17:00,72.3,40.8,29.91,ESE,108,4.6,4.6,32,0.00,CLR,,0.00,WeatherDisplay:10.37,2013-05-04 23:17:00,
2013-05-04 19:22:00,72.1,40.6,29.91,East,94,3.5,3.5,32,0.00,CLR,,0.00,WeatherDisplay:10.37,2013-05-04 23:22:00,
2013-05-04 19:27:00,71.7,39.4,29.91,East,94,2.3,2.3,31,0.00,CLR,,0.00,WeatherDisplay:10.37,2013-05-04 23:27:00,
2013-05-04 19:32:00,71.4,40.8,29.90,ESE,113,7.0,7.0,33,0.00,CLR,,0.00,WeatherDisplay:10.37,2013-05-04 23:32:00,
2013-05-04 19:37:00,70.9,39.6,29.90,ESE,110,7.0,7.0,32,0.00,CLR,,0.00,WeatherDisplay:10.37,2013-05-04 23:37:00,
2013-05-04 19:42:00,69.7,40.8,29.91,ESE,107,4.6,4.6,35,0.00,CLR,,0.00,WeatherDisplay:10.37,2013-05-04 23:42:00,
2013-05-04 19:47:00,68.9,40.8,29.90,ESE,111,3.5,3.5,36,0.00,CLR,,0.00,WeatherDisplay:10.37,2013-05-04 23:47:00,
2013-05-04 19:52:00,68.8,39.3,29.91,ESE,111,3.5,3.5,34,0.00,CLR,,0.00,WeatherDisplay:10.37,2013-05-04 23:52:00,
2013-05-04 19:57:00,68.8,38.5,29.91,ESE,104,2.3,2.3,33,0.00,CLR,,0.00,WeatherDisplay:10.37,2013-05-04 23:57:00,
2013-05-04 20:02:00,68.9,37.8,29.91,ESE,104,3.5,3.5,32,0.00,CLR,,0.00,WeatherDisplay:10.37,2013-05-05 00:02:00,
2013-05-04 20:07:00,69.1,38.0,29.91,ESE,104,2.3,2.3,32,0.00,CLR,,0.00,WeatherDisplay:10.37,2013-05-05 00:07:00,
2013-05-04 20:12:00,69.0,37.1,29.91,ESE,104,1.2,1.2,31,0.00,CLR,,0.00,WeatherDisplay:10.37,2013-05-05 00:12:00,
2013-05-04 20:17:00,68.8,36.9,29.91,ESE,104,0.0,0.0,31,0.00,CLR,,0.00,WeatherDisplay:10.37,2013-05-05 00:17:00,
2013-05-04 20:22:00,68.9,36.2,29.91,ESE,104,1.2,1.2,30,0.00,CLR,,0.00,WeatherDisplay:10.37,2013-05-05 00:22:00,
2013-05-04 20:27:00,68.9,37.0,29.91,ESE,104,2.3,2.3,31,0.00,CLR,,0.00,WeatherDisplay:10.37,2013-05-05 00:27:00,
2013-05-04 20:32:00,68.8,36.9,29.91,ESE,104,2.3,2.3,31,0.00,CLR,,0.00,WeatherDisplay:10.37,2013-05-05 00:32:00,
2013-05-04 20:37:00,68.7,36.8,29.91,ESE,104,2.3,2.3,31,0.00,CLR,,0.00,WeatherDisplay:10.37,2013-05-05 00:37:00,
2013-05-04 20:42:00,68.5,36.7,29.91,ESE,104,2.0,2.0,31,0.00,CLR,,0.00,WeatherDisplay:10.37,2013-05-05 00:42:00,
2013-05-04 20:47:00,68.4,36.6,29.91,ESE,104,0.0,0.0,31,0.00,CLR,,0.00,WeatherDisplay:10.37,2013-05-05 00:47:00,
2013-05-04 20:52:00,68.2,36.4,29.91,ESE,104,1.2,1.2,31,0.00,CLR,,0.00,WeatherDisplay:10.37,2013-05-05 00:52:00,
2013-05-04 20:57:00,68.1,36.3,29.91,ESE,104,2.3,2.3,31,0.00,CLR,,0.00,WeatherDisplay:10.37,2013-05-05 00:57:00,
2013-05-04 21:02:00,67.9,36.1,29.91,ENE,67,4.6,4.6,31,0.00,CLR,,0.00,WeatherDisplay:10.37,2013-05-05 01:02:00,
2013-05-04 21:07:00,67.6,36.7,29.91,ENE,67,3.5,3.5,32,0.00,CLR,,0.00,WeatherDisplay:10.37,2013-05-05 01:07:00,
2013-05-04 21:12:00,67.3,36.4,29.92,ENE,67,3.5,3.5,32,0.00,CLR,,0.00,WeatherDisplay:10.37,2013-05-05 01:12:00,
2013-05-04 21:17:00,67.0,36.9,29.92,ENE,67,2.3,2.3,33,0.00,CLR,,0.00,WeatherDisplay:10.37,2013-05-05 01:17:00,
2013-05-04 21:22:00,65.8,37.4,29.92,ENE,67,0.0,0.0,35,0.00,CLR,,0.00,WeatherDisplay:10.37,2013-05-05 01:22:00,
2013-05-04 21:27:00,64.8,37.2,29.92,ENE,67,1.2,1.2,36,0.00,CLR,,0.00,WeatherDisplay:10.37,2013-05-05 01:27:00,
2013-05-04 21:32:00,64.4,37.5,29.92,ENE,67,0.0,0.0,37,0.00,CLR,,0.00,WeatherDisplay:10.37,2013-05-05 01:32:00,
2013-05-04 21:37:00,64.3,38.1,29.92,ENE,67,1.2,0.0,38,0.00,CLR,,0.00,WeatherDisplay:10.37,2013-05-05 01:37:00,
2013-05-04 21:42:00,64.2,38.0,29.92,ENE,67,1.2,1.2,38,0.00,CLR,,0.00,WeatherDisplay:10.37,2013-05-05 01:42:00,
2013-05-04 21:47:00,64.0,38.5,29.92,ENE,67,1.2,1.2,39,0.00,CLR,,0.00,WeatherDisplay:10.37,2013-05-05 01:47:00,
2013-05-04 21:52:00,63.6,38.2,29.92,ENE,67,0.0,0.0,39,0.00,CLR,,0.00,WeatherDisplay:10.37,2013-05-05 01:52:00,
2013-05-04 21:58:00,63.0,38.9,29.92,ENE,67,0.0,0.0,41,0.00,CLR,,0.00,WeatherDisplay:10.37,2013-05-05 01:58:00,
2013-05-04 22:03:00,62.0,39.2,29.92,ENE,67,0.0,0.0,43,0.00,CLR,,0.00,WeatherDisplay:10.37,2013-05-05 02:03:00,
2013-05-04 22:08:00,61.6,39.5,29.92,ENE,67,1.0,0.0,44,0.00,CLR,,0.00,WeatherDisplay:10.37,2013-05-05 02:08:00,
2013-05-04 22:13:00,61.3,39.2,29.92,ENE,67,0.0,0.0,44,0.00,CLR,,0.00,WeatherDisplay:10.37,2013-05-05 02:13:00,
2013-05-04 22:18:00,61.3,39.8,29.92,ENE,67,0.0,0.0,45,0.00,CLR,,0.00,WeatherDisplay:10.37,2013-05-05 02:18:00,
2013-05-04 22:23:00,61.1,40.1,29.92,ENE,67,2.3,0.0,46,0.00,CLR,,0.00,WeatherDisplay:10.37,2013-05-05 02:23:00,
2013-05-04 22:28:00,60.7,39.8,29.92,ENE,67,2.3,2.3,46,0.00,CLR,,0.00,WeatherDisplay:10.37,2013-05-05 02:28:00,
2013-05-04 22:33:00,60.5,40.2,29.92,ENE,67,2.0,2.0,47,0.00,CLR,,0.00,WeatherDisplay:10.37,2013-05-05 02:33:00,
2013-05-04 22:38:00,60.3,40.5,29.92,ENE,67,0.0,0.0,48,0.00,CLR,,0.00,WeatherDisplay:10.37,2013-05-05 02:38:00,
2013-05-04 22:43:00,60.0,40.2,29.92,ENE,67,0.0,0.0,48,0.00,CLR,,0.00,WeatherDisplay:10.37,2013-05-05 02:43:00,
2013-05-04 22:48:00,59.9,40.1,29.92,ENE,67,0.0,0.0,48,0.00,CLR,,0.00,WeatherDisplay:10.37,2013-05-05 02:48:00,
2013-05-04 22:53:00,59.6,39.9,29.92,ENE,67,0.0,0.0,48,0.00,CLR,,0.00,WeatherDisplay:10.37,2013-05-05 02:53:00,
2013-05-04 22:58:00,59.5,40.3,29.92,ENE,67,0.0,0.0,49,0.00,CLR,,0.00,WeatherDisplay:10.37,2013-05-05 02:58:00,
2013-05-04 23:03:00,59.5,40.3,29.92,ENE,67,0.0,0.0,49,0.00,CLR,,0.00,WeatherDisplay:10.37,2013-05-05 03:03:00,
2013-05-04 23:08:00,59.8,39.5,29.92,ENE,67,0.0,0.0,47,0.00,CLR,,0.00,WeatherDisplay:10.37,2013-05-05 03:08:00,
2013-05-04 23:13:00,60.1,39.8,29.92,ENE,67,0.0,0.0,47,0.00,CLR,,0.00,WeatherDisplay:10.37,2013-05-05 03:13:00,
2013-05-04 23:18:00,60.5,39.6,29.92,ENE,67,0.0,0.0,46,0.00,CLR,,0.00,WeatherDisplay:10.37,2013-05-05 03:18:00,
2013-05-04 23:23:00,60.6,39.1,29.92,ENE,67,0.0,0.0,45,0.00,CLR,,0.00,WeatherDisplay:10.37,2013-05-05 03:23:00,
2013-05-04 23:28:00,60.6,39.1,29.92,ENE,67,0.0,0.0,45,0.00,CLR,,0.00,WeatherDisplay:10.37,2013-05-05 03:28:00,
2013-05-04 23:33:00,61.2,39.1,29.92,ENE,67,0.0,0.0,44,0.00,CLR,,0.00,WeatherDisplay:10.37,2013-05-05 03:33:00,
2013-05-04 23:38:00,61.2,39.1,29.92,ENE,67,0.0,0.0,44,0.00,CLR,,0.00,WeatherDisplay:10.37,2013-05-05 03:38:00,
2013-05-04 23:43:00,60.9,39.4,29.92,ENE,67,0.0,0.0,45,0.00,CLR,,0.00,WeatherDisplay:10.37,2013-05-05 03:43:00,
2013-05-04 23:48:00,60.5,39.0,29.92,ENE,67,0.0,0.0,45,0.00,CLR,,0.00,WeatherDisplay:10.37,2013-05-05 03:48:00,
2013-05-04 23:53:00,60.2,39.9,29.92,ENE,67,0.0,0.0,47,0.00,CLR,,0.00,WeatherDisplay:10.37,2013-05-05 03:53:00,
2013-05-04 23:58:00,59.8,39.5,29.92,ENE,67,0.0,0.0,47,0.00,CLR,,0.00,WeatherDisplay:10.37,2013-05-05 03:58:00,